Time;durP1;ratioP1;P1;durP2;ratioP2;P2;SDS_P1;SDS_P2;PMS_P1;PMS_P2;Temp;Humidity;BMP_temperature;BMP_pressure;BME280_temperature;BME280_humidity;BME280_pressure;Samples;Min_cycle;Max_cycle;Signal;HPM_P1;HPM_P2
2024/01/30 00:00:30;;;;;;;38.13;23.38;;;2.80;78.80;;;;;;5038117;28;20225;-76
2024/01/30 00:02:59;;;;;;;36.03;24.00;;;2.80;78.80;;;;;;5022064;28;20209;-76
2024/01/30 00:05:27;;;;;;;37.33;23.45;;;2.70;78.80;;;;;;5021717;28;20237;-76
2024/01/30 00:07:55;;;;;;;29.10;19.80;;;2.80;79.00;;;;;;5021452;28;20231;-77
2024/01/30 00:10:23;;;;;;;31.15;22.10;;;2.80;79.00;;;;;;5020999;28;21168;-77
2024/01/30 00:12:52;;;;;;;42.30;25.38;;;2.70;78.90;;;;;;5026374;28;20197;-78
2024/01/30 00:15:21;;;;;;;34.55;21.27;;;2.70;78.90;;;;;;5043660;28;20279;-78
2024/01/30 00:17:52;;;;;;;31.52;22.48;;;2.70;79.00;;;;;;5036600;28;20204;-78
2024/01/30 00:20:20;;;;;;;41.22;25.02;;;2.70;78.90;;;;;;5031282;28;20223;-78
2024/01/30 00:22:48;;;;;;;38.53;23.67;;;2.70;79.00;;;;;;5029579;28;20213;-76
2024/01/30 00:25:16;;;;;;;33.20;24.05;;;2.70;79.10;;;;;;5023227;28;20208;-77
2024/01/30 00:27:44;;;;;;;32.05;22.10;;;2.70;79.20;;;;;;5025214;28;20248;-77
2024/01/30 00:30:14;;;;;;;41.05;24.20;;;2.70;79.10;;;;;;5042623;28;20641;-76
2024/01/30 00:32:44;;;;;;;33.35;22.05;;;2.70;79.00;;;;;;5034532;28;20213;-77
2024/01/30 00:35:12;;;;;;;32.72;21.90;;;2.80;79.20;;;;;;5048121;28;20284;-76
2024/01/30 00:37:40;;;;;;;31.67;21.60;;;2.80;79.30;;;;;;5044335;28;20263;-77
2024/01/30 00:40:10;;;;;;;27.38;19.55;;;2.80;79.30;;;;;;5030090;28;20229;-77
2024/01/30 00:42:38;;;;;;;31.83;20.85;;;2.80;79.20;;;;;;5045559;28;20300;-77
2024/01/30 00:45:07;;;;;;;27.65;19.90;;;2.80;79.00;;;;;;5042396;28;20708;-77
2024/01/30 00:47:34;;;;;;;26.92;18.55;;;2.80;78.80;;;;;;5048912;28;20592;-76
2024/01/30 00:50:05;;;;;;;56.28;28.63;;;2.80;78.90;;;;;;5029760;28;20222;-76
2024/01/30 00:52:33;;;;;;;40.13;24.33;;;2.80;79.00;;;;;;5043738;28;20649;-76
2024/01/30 00:55:01;;;;;;;42.53;25.30;;;2.70;79.00;;;;;;5043960;28;20239;-76
2024/01/30 00:57:29;;;;;;;37.35;23.42;;;2.70;79.10;;;;;;5045282;28;20268;-76
2024/01/30 00:59:57;;;;;;;34.10;21.40;;;2.70;79.10;;;;;;5046063;28;20218;-76
2024/01/30 01:02:25;;;;;;;31.05;19.85;;;2.80;79.10;;;;;;5027538;28;20248;-76
2024/01/30 01:04:52;;;;;;;27.70;20.10;;;2.80;79.20;;;;;;5007525;28;20299;-76
2024/01/30 01:07:21;;;;;;;31.10;19.08;;;2.80;79.20;;;;;;5024372;28;20230;-76
2024/01/30 01:09:49;;;;;;;26.42;18.17;;;2.80;79.20;;;;;;5025385;28;20198;-76
2024/01/30 01:12:17;;;;;;;30.92;18.85;;;2.80;79.20;;;;;;5024392;28;20653;-76
2024/01/30 01:14:47;;;;;;;29.95;19.88;;;2.80;79.30;;;;;;5028389;28;20205;-76
2024/01/30 01:17:15;;;;;;;31.55;19.27;;;2.90;79.30;;;;;;5009455;28;20197;-76
2024/01/30 01:19:43;;;;;;;32.10;20.02;;;2.90;79.20;;;;;;5024497;28;20200;-76
2024/01/30 01:22:11;;;;;;;26.65;18.10;;;2.90;79.20;;;;;;5025601;28;20578;-76
2024/01/30 01:24:40;;;;;;;29.95;19.40;;;2.90;79.20;;;;;;5023944;28;20213;-75
2024/01/30 01:27:08;;;;;;;29.98;19.10;;;2.90;79.20;;;;;;5021658;28;20833;-76
2024/01/30 01:29:36;;;;;;;29.80;20.42;;;2.90;79.20;;;;;;5028128;28;20517;-76
2024/01/30 01:32:05;;;;;;;32.45;19.40;;;2.90;79.10;;;;;;5017351;28;20240;-75
2024/01/30 01:34:33;;;;;;;34.72;20.10;;;2.90;79.10;;;;;;5024964;28;20208;-78
2024/01/30 01:37:01;;;;;;;33.03;20.15;;;2.90;79.00;;;;;;5025819;28;20563;-76
2024/01/30 01:39:29;;;;;;;27.10;18.75;;;2.90;79.00;;;;;;5021579;28;20212;-76
2024/01/30 01:41:59;;;;;;;32.65;20.10;;;2.80;79.00;;;;;;5025776;28;20205;-76
2024/01/30 01:44:27;;;;;;;27.65;18.45;;;2.80;78.90;;;;;;5023288;28;20218;-77
2024/01/30 01:46:57;;;;;;;30.83;19.35;;;2.80;79.00;;;;;;5023813;28;20705;-77
2024/01/30 01:49:28;;;;;;;28.67;18.48;;;2.80;79.10;;;;;;5009946;28;20208;-77
2024/01/30 01:51:57;;;;;;;30.42;18.52;;;2.80;79.00;;;;;;5026072;28;20215;-77
2024/01/30 01:54:27;;;;;;;26.75;17.20;;;2.80;79.00;;;;;;5027732;28;20237;-77
2024/01/30 01:56:55;;;;;;;27.23;17.63;;;2.80;79.00;;;;;;5027634;28;20271;-78
2024/01/30 01:59:25;;;;;;;25.60;17.52;;;2.80;79.00;;;;;;5023569;28;20295;-77
2024/01/30 02:01:56;;;;;;;28.30;16.58;;;2.80;79.00;;;;;;5040942;28;20227;-76
2024/01/30 02:04:24;;;;;;;25.10;18.05;;;2.80;79.00;;;;;;5044743;28;20200;-78
2024/01/30 02:06:53;;;;;;;23.65;17.00;;;2.80;79.00;;;;;;5046682;28;20622;-78
2024/01/30 02:09:21;;;;;;;27.00;16.90;;;2.80;79.00;;;;;;5047267;28;20584;-77
2024/01/30 02:11:50;;;;;;;26.45;16.98;;;2.80;79.00;;;;;;5043928;28;20646;-76
2024/01/30 02:14:18;;;;;;;23.33;15.35;;;2.80;79.00;;;;;;5028574;28;20735;-76
2024/01/30 02:16:47;;;;;;;25.40;17.67;;;2.80;79.10;;;;;;5043674;28;20197;-77
2024/01/30 02:19:15;;;;;;;28.48;18.00;;;2.80;79.00;;;;;;5042466;28;20215;-77
2024/01/30 02:21:46;;;;;;;26.02;16.45;;;2.80;78.80;;;;;;5048379;28;20286;-76
2024/01/30 02:24:14;;;;;;;23.75;15.77;;;2.80;78.70;;;;;;5047427;28;20622;-76
2024/01/30 02:26:42;;;;;;;50.10;26.83;;;2.70;78.70;;;;;;5046487;28;20211;-77
2024/01/30 02:29:10;;;;;;;42.50;24.17;;;2.70;78.70;;;;;;5044553;28;20299;-77
2024/01/30 02:31:38;;;;;;;36.10;19.75;;;2.70;78.80;;;;;;5046479;28;20270;-77
2024/01/30 02:34:05;;;;;;;27.70;17.88;;;2.70;78.90;;;;;;5043835;28;20204;-77
2024/01/30 02:36:34;;;;;;;27.77;18.00;;;2.70;78.90;;;;;;5046334;28;20646;-77
2024/01/30 02:39:05;;;;;;;29.52;17.15;;;2.70;78.80;;;;;;5042926;28;20741;-77
2024/01/30 02:41:33;;;;;;;23.00;16.75;;;2.70;78.90;;;;;;5043617;28;20220;-77
2024/01/30 02:44:01;;;;;;;28.60;17.85;;;2.70;78.90;;;;;;5030159;28;20493;-77
2024/01/30 02:46:29;;;;;;;31.35;19.25;;;2.70;78.90;;;;;;5044111;28;20211;-77
2024/01/30 02:48:57;;;;;;;27.30;17.75;;;2.70;78.80;;;;;;5046524;28;20724;-76
2024/01/30 02:51:25;;;;;;;30.17;17.90;;;2.70;78.80;;;;;;5040761;28;20605;-76
2024/01/30 02:53:53;;;;;;;29.40;19.63;;;2.70;78.90;;;;;;5028401;28;20644;-76
2024/01/30 02:56:23;;;;;;;26.95;17.45;;;2.70;78.80;;;;;;5042271;28;20200;-76
2024/01/30 02:58:51;;;;;;;27.55;19.75;;;2.70;78.70;;;;;;5045628;28;20214;-76
2024/01/30 03:01:19;;;;;;;31.08;19.95;;;2.70;78.80;;;;;;5044149;28;20224;-76
2024/01/30 03:03:47;;;;;;;28.80;20.13;;;2.70;78.90;;;;;;5040770;28;20218;-76
2024/01/30 03:06:17;;;;;;;25.75;18.60;;;2.70;78.90;;;;;;5044373;28;20202;-76
2024/01/30 03:08:48;;;;;;;31.13;18.65;;;2.70;78.90;;;;;;5044701;28;20617;-77
2024/01/30 03:11:16;;;;;;;32.13;21.10;;;2.70;78.70;;;;;;5039223;28;20197;-76
2024/01/30 03:13:45;;;;;;;37.42;24.35;;;2.60;78.60;;;;;;5046833;28;20747;-76
2024/01/30 03:16:13;;;;;;;32.67;20.20;;;2.60;78.60;;;;;;5047292;28;20298;-76
2024/01/30 03:18:41;;;;;;;28.55;19.08;;;2.60;78.60;;;;;;5044294;28;20215;-75
2024/01/30 03:21:09;;;;;;;28.98;17.77;;;2.50;78.50;;;;;;5043946;28;20626;-75
2024/01/30 03:23:37;;;;;;;27.50;18.52;;;2.50;78.60;;;;;;5041820;28;20267;-75
2024/01/30 03:26:06;;;;;;;27.35;19.05;;;2.50;78.60;;;;;;5027089;28;20211;-75
2024/01/30 03:28:35;;;;;;;28.38;20.55;;;2.50;78.70;;;;;;5045047;28;20254;-76
2024/01/30 03:31:05;;;;;;;25.38;16.70;;;2.50;79.00;;;;;;5047881;28;20235;-76
2024/01/30 03:33:33;;;;;;;23.95;18.10;;;2.50;78.80;;;;;;5041015;28;20216;-76
2024/01/30 03:36:04;;;;;;;24.75;18.25;;;2.50;78.80;;;;;;5021708;28;20209;-76
2024/01/30 03:38:33;;;;;;;25.65;18.17;;;2.50;78.80;;;;;;5044724;28;20536;-76
2024/01/30 03:41:01;;;;;;;23.40;16.27;;;2.50;78.70;;;;;;5044681;28;20277;-76
2024/01/30 03:43:29;;;;;;;27.60;19.52;;;2.50;79.00;;;;;;5039354;28;20203;-76
2024/01/30 03:45:57;;;;;;;27.35;18.23;;;2.50;79.00;;;;;;5045772;28;20214;-76
2024/01/30 03:48:26;;;;;;;26.85;17.40;;;2.50;79.00;;;;;;5047798;28;20244;-76
2024/01/30 03:50:54;;;;;;;22.13;16.85;;;2.50;79.00;;;;;;5046886;28;20251;-76
2024/01/30 03:53:23;;;;;;;22.20;16.30;;;2.50;79.00;;;;;;5045754;28;20212;-76
2024/01/30 03:55:51;;;;;;;22.63;15.93;;;2.50;79.00;;;;;;5042907;28;20310;-76
2024/01/30 03:58:19;;;;;;;28.63;17.25;;;2.50;79.00;;;;;;5030759;28;20657;-76
2024/01/30 04:00:47;;;;;;;28.55;18.13;;;2.50;78.80;;;;;;5043947;28;20521;-75
2024/01/30 04:03:16;;;;;;;28.40;18.75;;;2.50;78.80;;;;;;5050467;28;20290;-75
2024/01/30 04:05:45;;;;;;;24.17;16.88;;;2.50;78.70;;;;;;5047624;28;20211;-75
2024/01/30 04:08:13;;;;;;;26.88;17.63;;;2.50;78.60;;;;;;5040168;28;20212;-75
2024/01/30 04:10:41;;;;;;;27.35;17.70;;;2.40;78.50;;;;;;5047396;28;20365;-76
2024/01/30 04:13:09;;;;;;;28.98;17.52;;;2.40;78.60;;;;;;5049870;28;20201;-75
2024/01/30 04:15:40;;;;;;;27.35;17.90;;;2.40;78.60;;;;;;5048881;28;20205;-75
2024/01/30 04:18:08;;;;;;;28.15;17.20;;;2.30;78.70;;;;;;5030533;28;20200;-76
2024/01/30 04:20:36;;;;;;;21.40;15.48;;;2.30;78.60;;;;;;5048625;28;20201;-76
2024/01/30 04:23:06;;;;;;;22.33;16.00;;;2.30;78.60;;;;;;5046105;28;20246;-76
2024/01/30 04:25:34;;;;;;;22.33;15.90;;;2.20;78.70;;;;;;5046416;28;20259;-76
2024/01/30 04:28:02;;;;;;;23.45;17.05;;;2.20;78.60;;;;;;5048554;28;20204;-76
2024/01/30 04:30:30;;;;;;;24.17;17.65;;;2.20;78.70;;;;;;5030359;28;20252;-75
2024/01/30 04:32:58;;;;;;;21.83;16.08;;;2.20;78.60;;;;;;5036139;28;20732;-76
2024/01/30 04:35:26;;;;;;;25.90;16.73;;;2.20;78.70;;;;;;5046161;28;20216;-77
2024/01/30 04:37:54;;;;;;;86.50;33.97;;;2.10;78.70;;;;;;5044556;28;20200;-77
2024/01/30 04:40:24;;;;;;;45.67;25.50;;;2.10;78.70;;;;;;5027731;28;20202;-77
2024/01/30 04:42:52;;;;;;;34.97;21.17;;;2.10;78.70;;;;;;5047260;28;20204;-77
2024/01/30 04:45:20;;;;;;;30.25;19.60;;;2.10;78.80;;;;;;5031747;28;20200;-77
2024/01/30 04:47:48;;;;;;;26.35;17.08;;;2.10;78.70;;;;;;5047080;28;20203;-77
2024/01/30 04:50:16;;;;;;;23.70;16.08;;;2.10;78.70;;;;;;5028540;28;20273;-77
2024/01/30 04:52:44;;;;;;;23.17;16.55;;;2.10;78.80;;;;;;5047797;28;20205;-77
2024/01/30 04:55:12;;;;;;;31.17;17.05;;;2.10;78.90;;;;;;5049616;28;20750;-77
2024/01/30 04:57:41;;;;;;;26.35;17.65;;;2.10;78.80;;;;;;5033998;28;20219;-77
2024/01/30 05:00:11;;;;;;;25.13;17.65;;;2.10;79.00;;;;;;5047643;28;20505;-77
2024/01/30 05:02:39;;;;;;;22.73;16.25;;;2.10;78.90;;;;;;5040841;28;20272;-77
2024/01/30 05:05:08;;;;;;;24.85;16.90;;;2.10;78.90;;;;;;5043809;28;20630;-77
2024/01/30 05:07:37;;;;;;;26.70;17.00;;;2.10;78.90;;;;;;5028756;28;20239;-76
2024/01/30 05:10:06;;;;;;;30.30;17.55;;;2.10;78.90;;;;;;5031889;28;20255;-75
2024/01/30 05:12:34;;;;;;;30.25;19.48;;;2.10;78.90;;;;;;5043649;28;20207;-76
2024/01/30 05:15:04;;;;;;;29.45;19.80;;;2.10;79.00;;;;;;5047309;28;20687;-76
2024/01/30 05:17:33;;;;;;;30.58;20.58;;;2.10;79.00;;;;;;5046317;28;20215;-76
2024/01/30 05:20:01;;;;;;;29.45;20.63;;;2.10;79.10;;;;;;5047424;28;20199;-76
2024/01/30 05:22:29;;;;;;;34.05;21.70;;;2.10;79.10;;;;;;5041594;28;20653;-76
2024/01/30 05:24:57;;;;;;;32.97;20.90;;;2.20;79.10;;;;;;5047757;28;20538;-76
2024/01/30 05:27:26;;;;;;;28.00;20.02;;;2.20;79.10;;;;;;5046534;28;20296;-77
2024/01/30 05:29:55;;;;;;;29.90;20.63;;;2.20;79.20;;;;;;5048128;28;20234;-77
2024/01/30 05:32:24;;;;;;;28.60;19.95;;;2.20;79.00;;;;;;5051577;28;20223;-77
2024/01/30 05:34:52;;;;;;;26.67;19.58;;;2.20;79.00;;;;;;5047631;28;20219;-77
2024/01/30 05:37:20;;;;;;;32.03;20.33;;;2.30;79.10;;;;;;5050998;28;20207;-77
2024/01/30 05:39:49;;;;;;;35.33;20.88;;;2.30;79.00;;;;;;5038710;28;20294;-77
2024/01/30 05:42:17;;;;;;;27.95;19.50;;;2.30;79.00;;;;;;5031862;28;20196;-77
2024/01/30 05:44:45;;;;;;;35.20;20.73;;;2.30;78.90;;;;;;5046138;28;20204;-77
2024/01/30 05:47:13;;;;;;;31.02;19.05;;;2.30;78.90;;;;;;5046200;28;20200;-78
2024/01/30 05:49:43;;;;;;;25.10;17.55;;;2.30;78.90;;;;;;5042279;28;20820;-77
2024/01/30 05:52:10;;;;;;;27.45;18.35;;;2.30;78.80;;;;;;5030357;28;20226;-76
2024/01/30 05:54:38;;;;;;;30.08;19.50;;;2.20;78.60;;;;;;5029171;28;20208;-75
2024/01/30 05:57:07;;;;;;;34.65;20.20;;;2.20;78.60;;;;;;5048259;28;20195;-76
2024/01/30 05:59:36;;;;;;;31.00;21.38;;;2.10;78.60;;;;;;5046649;28;20343;-76
2024/01/30 06:02:08;;;;;;;33.15;20.60;;;2.10;78.50;;;;;;5042499;28;20520;-76
2024/01/30 06:04:36;;;;;;;31.65;20.02;;;2.10;78.60;;;;;;5033061;28;20511;-75
2024/01/30 06:07:06;;;;;;;29.55;19.17;;;2.00;78.70;;;;;;5043431;28;20253;-75
2024/01/30 06:09:34;;;;;;;32.88;18.10;;;2.00;78.70;;;;;;5042648;28;20314;-76
2024/01/30 06:12:05;;;;;;;29.40;20.15;;;2.00;78.70;;;;;;5045799;28;20227;-76
2024/01/30 06:14:33;;;;;;;31.85;19.83;;;2.00;78.70;;;;;;5024434;28;20262;-76
2024/01/30 06:17:01;;;;;;;31.42;19.52;;;2.00;78.70;;;;;;5049352;28;20207;-76
2024/01/30 06:19:29;;;;;;;31.25;19.70;;;2.00;78.70;;;;;;5045666;28;20204;-76
2024/01/30 06:21:58;;;;;;;33.47;20.38;;;2.00;78.60;;;;;;5046015;28;20542;-75
2024/01/30 06:24:27;;;;;;;37.78;24.27;;;2.00;78.60;;;;;;5039897;28;20798;-76
2024/01/30 06:26:55;;;;;;;48.28;27.50;;;1.90;78.60;;;;;;5044234;28;20298;-76
2024/01/30 06:29:24;;;;;;;47.28;24.73;;;2.00;78.70;;;;;;5042776;28;20286;-76
2024/01/30 06:31:52;;;;;;;36.83;24.13;;;2.00;78.90;;;;;;5039136;28;20290;-76
2024/01/30 06:34:20;;;;;;;40.00;24.15;;;2.00;78.70;;;;;;5031811;28;20205;-76
2024/01/30 06:36:48;;;;;;;38.00;23.85;;;2.00;78.70;;;;;;5045288;28;20215;-76
2024/01/30 06:39:16;;;;;;;37.80;24.60;;;2.00;78.90;;;;;;5042442;28;20237;-75
2024/01/30 06:41:47;;;;;;;32.22;22.58;;;2.00;78.80;;;;;;5042634;28;20314;-76
2024/01/30 06:44:15;;;;;;;40.63;25.40;;;2.00;78.80;;;;;;5039074;28;20295;-76
2024/01/30 06:46:43;;;;;;;38.22;24.73;;;2.10;78.80;;;;;;5045947;28;20654;-76
2024/01/30 06:49:11;;;;;;;37.35;23.25;;;2.10;78.80;;;;;;5045681;28;20200;-76
2024/01/30 06:51:39;;;;;;;39.72;21.73;;;2.10;78.80;;;;;;5036002;28;20580;-75
2024/01/30 06:54:07;;;;;;;31.73;21.63;;;2.10;78.70;;;;;;5032248;28;20645;-76
2024/01/30 06:56:35;;;;;;;30.45;19.63;;;2.10;78.70;;;;;;5041614;28;20208;-76
2024/01/30 06:59:05;;;;;;;32.30;20.95;;;2.10;78.70;;;;;;5046000;28;20222;-76
2024/01/30 07:01:33;;;;;;;32.97;21.65;;;2.10;78.70;;;;;;5043627;28;20228;-76
2024/01/30 07:04:01;;;;;;;38.10;24.10;;;2.10;78.70;;;;;;5021810;28;20259;-75
2024/01/30 07:06:29;;;;;;;39.70;27.08;;;2.10;78.70;;;;;;5041158;28;20214;-76
2024/01/30 07:08:58;;;;;;;38.97;25.77;;;2.10;78.60;;;;;;5045527;28;20204;-76
2024/01/30 07:11:26;;;;;;;45.95;28.85;;;2.00;78.60;;;;;;5044046;28;20633;-76
2024/01/30 07:13:55;;;;;;;39.03;25.15;;;2.00;78.50;;;;;;5027895;28;20512;-75
2024/01/30 07:16:24;;;;;;;42.85;26.83;;;2.00;78.50;;;;;;5036538;28;20212;-75
2024/01/30 07:18:52;;;;;;;40.67;26.83;;;1.90;78.50;;;;;;5037215;28;20649;-76
2024/01/30 07:21:21;;;;;;;38.80;23.98;;;1.90;78.50;;;;;;5034065;28;20205;-75
2024/01/30 07:23:50;;;;;;;36.20;23.20;;;1.90;78.50;;;;;;5039586;28;20200;-76
2024/01/30 07:26:18;;;;;;;47.15;31.42;;;1.80;78.50;;;;;;5040910;28;20211;-76
2024/01/30 07:28:46;;;;;;;81.70;46.65;;;1.80;78.50;;;;;;5040547;28;20208;-76
2024/01/30 07:31:14;;;;;;;95.00;50.78;;;1.80;78.60;;;;;;5040469;28;20224;-76
2024/01/30 07:33:44;;;;;;;80.50;44.88;;;1.80;78.70;;;;;;5040255;28;20212;-76
2024/01/30 07:36:12;;;;;;;67.68;44.15;;;1.80;78.90;;;;;;5042041;28;20208;-76
2024/01/30 07:38:40;;;;;;;65.80;39.63;;;1.90;79.00;;;;;;5040253;28;20209;-76
2024/01/30 07:41:08;;;;;;;66.63;39.80;;;1.90;79.00;;;;;;5040229;28;20229;-76
2024/01/30 07:43:36;;;;;;;59.53;38.15;;;1.90;79.10;;;;;;5039658;28;20208;-76
2024/01/30 07:46:06;;;;;;;65.40;38.65;;;2.00;79.10;;;;;;5043458;28;20208;-76
2024/01/30 07:48:34;;;;;;;70.47;42.55;;;2.10;79.10;;;;;;5028868;28;20205;-76
2024/01/30 07:51:04;;;;;;;78.25;45.80;;;2.10;79.00;;;;;;5040473;28;20275;-76
2024/01/30 07:53:32;;;;;;;81.07;44.95;;;2.10;78.90;;;;;;5040296;28;20696;-76
2024/01/30 07:56:00;;;;;;;88.65;43.83;;;2.10;78.90;;;;;;5034213;28;20209;-76
2024/01/30 07:58:27;;;;;;;68.75;39.47;;;2.10;79.00;;;;;;5036693;28;20230;-76
2024/01/30 08:00:58;;;;;;;83.22;45.53;;;2.20;79.10;;;;;;5030144;28;20233;-75
2024/01/30 08:03:26;;;;;;;88.90;47.28;;;2.20;79.10;;;;;;5032315;28;20208;-76
2024/01/30 08:05:55;;;;;;;121.22;57.35;;;2.20;79.00;;;;;;5040023;28;20713;-75
2024/01/30 08:08:25;;;;;;;118.05;58.42;;;2.30;79.10;;;;;;5037654;28;20210;-76
2024/01/30 08:10:53;;;;;;;117.90;59.83;;;2.30;79.10;;;;;;5044204;28;20209;-75
2024/01/30 08:13:22;;;;;;;105.60;53.95;;;2.30;79.20;;;;;;5033673;28;20200;-76
2024/01/30 08:15:50;;;;;;;83.55;46.78;;;2.40;79.20;;;;;;5041370;28;20278;-76
2024/01/30 08:18:19;;;;;;;59.65;35.58;;;2.40;79.20;;;;;;5025106;28;20242;-76
2024/01/30 08:20:47;;;;;;;61.55;38.08;;;2.40;79.30;;;;;;5023564;28;20559;-76
2024/01/30 08:23:16;;;;;;;62.45;37.83;;;2.50;79.30;;;;;;5019993;28;20291;-76
2024/01/30 08:25:46;;;;;;;64.40;37.33;;;2.50;79.20;;;;;;5045944;28;20203;-76
2024/01/30 08:28:14;;;;;;;64.97;37.47;;;2.50;79.20;;;;;;5040707;28;20338;-76
2024/01/30 08:30:45;;;;;;;65.68;39.03;;;2.60;79.30;;;;;;5037971;28;20267;-76
2024/01/30 08:33:13;;;;;;;65.93;39.40;;;2.60;79.30;;;;;;5046443;28;20289;-76
2024/01/30 08:35:42;;;;;;;67.03;42.30;;;2.60;79.30;;;;;;5042794;28;20212;-76
2024/01/30 08:38:12;;;;;;;67.55;39.63;;;2.70;79.20;;;;;;5046795;28;20202;-76
2024/01/30 08:40:40;;;;;;;75.75;44.97;;;2.70;79.20;;;;;;5030751;28;20637;-76
2024/01/30 08:43:10;;;;;;;92.78;52.83;;;2.70;79.30;;;;;;5048134;28;20618;-75
2024/01/30 08:45:40;;;;;;;84.18;51.80;;;2.70;79.30;;;;;;5044701;28;20200;-76
2024/01/30 08:48:09;;;;;;;87.15;50.08;;;2.80;79.30;;;;;;5050523;28;20294;-76
2024/01/30 08:50:37;;;;;;;91.85;49.63;;;2.80;79.30;;;;;;5043448;28;20200;-76
2024/01/30 08:53:05;;;;;;;87.95;52.10;;;2.80;79.40;;;;;;5044358;28;20236;-76
2024/01/30 08:55:33;;;;;;;81.50;47.35;;;2.90;79.40;;;;;;5046467;28;20214;-76
2024/01/30 08:58:03;;;;;;;74.22;48.10;;;2.90;79.40;;;;;;5047241;28;20217;-76
2024/01/30 09:00:33;;;;;;;90.90;51.13;;;2.90;79.40;;;;;;5029208;28;20227;-76
2024/01/30 09:03:01;;;;;;;93.15;55.17;;;3.00;79.40;;;;;;5050567;28;20282;-76
2024/01/30 09:05:29;;;;;;;88.72;54.75;;;3.00;79.40;;;;;;5045888;28;20192;-76
2024/01/30 09:07:58;;;;;;;62.92;40.42;;;3.00;79.50;;;;;;5021226;28;20864;-76
2024/01/30 09:10:28;;;;;;;63.42;39.75;;;3.10;79.50;;;;;;5045029;28;20281;-76
2024/01/30 09:12:56;;;;;;;60.08;37.85;;;3.10;79.50;;;;;;5046318;28;20823;-76
2024/01/30 09:15:25;;;;;;;53.28;36.10;;;3.10;79.60;;;;;;5042064;28;20235;-76
2024/01/30 09:17:56;;;;;;;57.90;36.53;;;3.20;79.60;;;;;;5041745;28;20314;-76
2024/01/30 09:20:24;;;;;;;51.72;34.58;;;3.20;79.60;;;;;;5029642;28;20637;-76
2024/01/30 09:22:53;;;;;;;53.00;35.17;;;3.20;79.70;;;;;;5040923;28;20237;-76
2024/01/30 09:25:21;;;;;;;48.10;31.85;;;3.20;79.70;;;;;;5025536;28;20622;-76
2024/01/30 09:27:49;;;;;;;47.15;30.58;;;3.30;79.70;;;;;;5044133;28;20207;-76
2024/01/30 09:30:18;;;;;;;39.47;27.20;;;3.30;79.60;;;;;;5045695;28;20216;-76
2024/01/30 09:32:46;;;;;;;40.67;25.80;;;3.30;79.70;;;;;;5027650;28;20244;-76
2024/01/30 09:35:22;;;;;;;40.90;25.98;;;3.40;79.80;;;;;;5043756;28;20203;-76
2024/01/30 09:37:52;;;;;;;33.95;23.75;;;3.40;79.80;;;;;;5041916;28;20283;-76
2024/01/30 09:40:20;;;;;;;35.50;22.52;;;3.50;79.80;;;;;;5046175;28;20328;-76
2024/01/30 09:42:52;;;;;;;33.50;21.70;;;3.50;79.80;;;;;;5047986;28;20285;-76
2024/01/30 09:45:35;;;;;;;33.08;22.10;;;3.50;79.90;;;;;;5047735;28;20204;-75
2024/01/30 09:48:05;;;;;;;32.47;22.85;;;3.60;79.90;;;;;;5043991;28;20316;-76
2024/01/30 09:50:40;;;;;;;30.00;20.75;;;3.60;79.90;;;;;;5042369;28;20219;-76
2024/01/30 09:53:09;;;;;;;32.28;21.23;;;3.60;80.00;;;;;;5031652;28;20263;-76
2024/01/30 09:55:39;;;;;;;30.00;22.15;;;3.70;80.00;;;;;;5040843;28;20219;-76
2024/01/30 09:58:14;;;;;;;34.95;23.40;;;3.70;80.00;;;;;;5046031;28;20204;-76
2024/01/30 10:00:43;;;;;;;31.73;21.38;;;3.70;80.10;;;;;;5022942;28;20795;-76
2024/01/30 10:03:19;;;;;;;30.50;22.42;;;3.70;80.10;;;;;;5041398;28;20212;-76
2024/01/30 10:06:14;;;;;;;34.33;22.42;;;3.80;80.10;;;;;;5029635;28;20261;-76
2024/01/30 10:08:55;;;;;;;26.45;19.20;;;3.80;80.20;;;;;;5047306;28;20205;-77
2024/01/30 10:11:24;;;;;;;32.65;22.00;;;3.80;80.20;;;;;;5042367;28;20207;-76
2024/01/30 10:14:05;;;;;;;27.77;20.42;;;3.90;80.20;;;;;;5041109;28;20203;-76
2024/01/30 10:16:37;;;;;;;29.20;20.15;;;3.90;80.20;;;;;;5044098;28;20238;-76
2024/01/30 10:19:11;;;;;;;29.50;21.33;;;3.90;80.30;;;;;;5043187;28;20204;-75
2024/01/30 10:21:44;;;;;;;29.73;20.80;;;3.90;80.30;;;;;;5043406;28;20212;-76
2024/01/30 10:24:14;;;;;;;32.83;21.58;;;4.00;80.30;;;;;;5037696;28;20210;-76
2024/01/30 10:26:47;;;;;;;27.33;21.52;;;4.00;80.30;;;;;;5044141;28;20214;-76
2024/01/30 10:29:17;;;;;;;27.30;20.75;;;4.00;80.30;;;;;;5041955;28;20537;-76
2024/01/30 10:31:58;;;;;;;27.98;20.63;;;4.00;80.30;;;;;;5040582;28;20248;-76
2024/01/30 10:34:28;;;;;;;28.00;20.67;;;4.10;80.40;;;;;;5044057;28;20204;-76
2024/01/30 10:37:15;;;;;;;31.60;21.15;;;4.10;80.40;;;;;;5043499;28;20286;-76
2024/01/30 10:39:46;;;;;;;29.92;21.15;;;4.10;80.50;;;;;;5041927;28;20192;-76
2024/01/30 10:42:22;;;;;;;33.13;23.38;;;4.10;80.40;;;;;;5044795;28;20267;-76
2024/01/30 10:45:03;;;;;;;31.02;23.10;;;4.10;80.50;;;;;;5039628;28;20224;-76
2024/01/30 10:47:36;;;;;;;26.55;20.13;;;4.20;80.50;;;;;;5046215;28;20617;-76
2024/01/30 10:50:16;;;;;;;34.72;23.13;;;4.20;80.50;;;;;;5044896;28;20212;-76
2024/01/30 10:52:47;;;;;;;32.83;23.10;;;4.20;80.60;;;;;;5042469;28;20719;-76
2024/01/30 10:55:20;;;;;;;30.55;22.58;;;4.30;80.50;;;;;;5042913;28;20279;-76
2024/01/30 10:57:53;;;;;;;36.72;22.38;;;4.30;80.50;;;;;;5043933;28;20219;-76
2024/01/30 11:00:24;;;;;;;29.75;21.83;;;4.30;80.60;;;;;;5030585;28;20627;-76
2024/01/30 11:02:53;;;;;;;29.30;21.85;;;4.30;80.60;;;;;;5043250;28;20283;-76
2024/01/30 11:05:29;;;;;;;28.88;21.90;;;4.40;80.60;;;;;;5027123;28;20282;-76
2024/01/30 11:08:12;;;;;;;31.08;22.15;;;4.40;80.70;;;;;;5044160;28;20207;-76
2024/01/30 11:10:47;;;;;;;35.47;24.08;;;4.40;80.70;;;;;;5038634;28;20860;-76
2024/01/30 11:13:15;;;;;;;33.55;23.40;;;4.50;80.80;;;;;;5026692;28;20313;-76
2024/01/30 11:15:43;;;;;;;32.35;23.08;;;4.50;80.80;;;;;;5040865;28;20210;-76
2024/01/30 11:18:11;;;;;;;31.08;21.40;;;4.50;80.80;;;;;;5030457;28;20251;-76
2024/01/30 11:20:45;;;;;;;34.33;21.92;;;4.50;80.80;;;;;;5040389;28;20303;-76
2024/01/30 11:23:15;;;;;;;27.40;21.02;;;4.60;80.80;;;;;;5041169;28;20270;-76
2024/01/30 11:25:45;;;;;;;27.75;21.30;;;4.60;80.80;;;;;;5038575;28;20520;-76
2024/01/30 11:28:16;;;;;;;31.30;21.90;;;4.60;80.90;;;;;;5041063;28;20199;-76
2024/01/30 11:30:44;;;;;;;29.42;22.48;;;4.70;80.90;;;;;;5037291;28;20233;-76
2024/01/30 11:33:14;;;;;;;30.80;23.33;;;4.70;80.90;;;;;;5041639;28;20275;-76
2024/01/30 11:35:45;;;;;;;31.55;23.33;;;4.70;80.90;;;;;;5042690;28;20208;-76
2024/01/30 11:38:16;;;;;;;35.42;23.25;;;4.80;81.00;;;;;;5038624;28;20282;-76
2024/01/30 11:40:45;;;;;;;50.25;32.72;;;4.80;81.10;;;;;;5057685;28;20675;-76
2024/01/30 11:43:13;;;;;;;43.88;31.55;;;4.80;81.10;;;;;;5058210;28;20552;-76
2024/01/30 11:45:41;;;;;;;42.65;27.00;;;4.90;81.10;;;;;;5040294;28;20208;-76
2024/01/30 11:48:10;;;;;;;37.67;24.92;;;4.90;81.10;;;;;;5043521;28;20204;-76
2024/01/30 11:50:40;;;;;;;33.58;24.20;;;4.90;81.20;;;;;;5039838;28;20269;-76
2024/01/30 11:53:09;;;;;;;40.92;22.63;;;5.00;81.20;;;;;;5042338;28;20348;-76
2024/01/30 11:55:39;;;;;;;31.80;22.77;;;5.00;81.30;;;;;;5042524;28;20307;-76
2024/01/30 11:58:08;;;;;;;30.83;21.08;;;5.00;81.30;;;;;;5042765;28;20640;-76
2024/01/30 12:00:36;;;;;;;30.83;23.15;;;5.10;81.30;;;;;;5037860;28;20721;-76
2024/01/30 12:03:06;;;;;;;37.10;24.38;;;5.10;81.30;;;;;;5045712;28;20288;-76
2024/01/30 12:05:36;;;;;;;33.30;23.35;;;5.10;81.40;;;;;;5058505;28;20244;-76
2024/01/30 12:08:05;;;;;;;34.65;23.05;;;5.20;81.40;;;;;;5047439;28;20204;-76
2024/01/30 12:10:33;;;;;;;30.70;23.38;;;5.20;81.40;;;;;;5048490;28;20207;-76
2024/01/30 12:13:03;;;;;;;36.70;25.92;;;5.20;81.50;;;;;;5047430;28;20244;-76
2024/01/30 12:15:31;;;;;;;39.17;22.38;;;5.20;81.60;;;;;;5043083;28;20664;-76
2024/01/30 12:18:05;;;;;;;31.13;22.73;;;5.30;81.60;;;;;;5046699;28;20204;-76
2024/01/30 12:20:34;;;;;;;33.33;24.35;;;5.30;81.70;;;;;;5042433;28;20197;-76
2024/01/30 12:23:02;;;;;;;34.03;23.20;;;5.40;81.70;;;;;;5043155;28;20296;-76
2024/01/30 12:25:31;;;;;;;29.67;22.58;;;5.40;81.80;;;;;;5056755;28;20661;-76
2024/01/30 12:27:59;;;;;;;30.55;23.88;;;5.50;81.80;;;;;;5059866;28;20731;-76
2024/01/30 12:30:29;;;;;;;30.05;23.02;;;5.50;81.80;;;;;;5064244;28;20240;-76
2024/01/30 12:32:58;;;;;;;35.97;25.73;;;5.50;81.80;;;;;;5044375;28;20227;-76
2024/01/30 12:35:26;;;;;;;32.58;23.67;;;5.50;81.90;;;;;;5062842;28;20200;-76
2024/01/30 12:37:59;;;;;;;29.00;22.63;;;5.60;81.90;;;;;;5045705;28;20215;-76
2024/01/30 12:40:27;;;;;;;37.50;24.80;;;5.60;81.90;;;;;;5047574;28;20212;-76
2024/01/30 12:42:55;;;;;;;37.45;24.00;;;5.60;82.00;;;;;;5046008;28;20205;-76
2024/01/30 12:45:24;;;;;;;30.42;22.48;;;5.70;82.00;;;;;;5047475;28;20208;-76